Time;durP1;ratioP1;P1;durP2;ratioP2;P2;SDS_P1;SDS_P2;PMS_P1;PMS_P2;Temp;Humidity;BMP_temperature;BMP_pressure;BME280_temperature;BME280_humidity;BME280_pressure;Samples;Min_cycle;Max_cycle;Signal;HPM_P1;HPM_P2
2021/04/10 00:00:02;;;;;;;2.97;1.85;;;;;;;2.87;63.62;101220.72;5029739;28;20042;-49
2021/04/10 00:02:29;;;;;;;4.97;2.00;;;;;;;2.85;63.79;101220.19;5033421;28;20076;-47
2021/04/10 00:04:55;;;;;;;2.83;1.85;;;;;;;2.87;63.84;101222.63;5018928;28;20048;-54
2021/04/10 00:07:21;;;;;;;5.57;2.50;;;;;;;2.79;63.89;101221.31;5001265;28;20120;-47
2021/04/10 00:09:48;;;;;;;3.97;1.40;;;;;;;2.79;63.94;101215.84;5025132;28;20068;-50
2021/04/10 00:12:14;;;;;;;5.80;1.67;;;;;;;2.80;63.94;101220.22;5024283;28;20037;-47
2021/04/10 00:14:41;;;;;;;5.03;1.65;;;;;;;2.81;63.87;101223.75;5026808;28;20136;-48
2021/04/10 00:17:08;;;;;;;3.75;1.90;;;;;;;2.78;63.81;101218.88;5032148;28;20103;-46
2021/04/10 00:19:34;;;;;;;4.88;1.90;;;;;;;2.76;63.75;101216.41;5018917;28;20042;-48
2021/04/10 00:22:01;;;;;;;8.02;2.22;;;;;;;2.71;63.92;101226.53;5020444;28;20120;-48
2021/04/10 00:24:27;;;;;;;4.93;2.00;;;;;;;2.70;64.08;101222.97;5021225;28;20054;-51
2021/04/10 00:26:54;;;;;;;9.20;2.65;;;;;;;2.69;63.95;101226.00;5022801;28;20076;-50
2021/04/10 00:29:20;;;;;;;3.45;1.50;;;;;;;2.65;64.05;101222.22;5024183;28;20481;-47
2021/04/10 00:31:47;;;;;;;5.07;2.08;;;;;;;2.64;64.25;101215.94;5029421;28;20117;-49
2021/04/10 00:34:13;;;;;;;6.15;2.13;;;;;;;2.61;64.40;101212.94;4995964;28;20698;-46
2021/04/10 00:36:39;;;;;;;9.45;2.05;;;;;;;2.60;64.63;101222.22;5016470;28;20037;-49
2021/04/10 00:39:05;;;;;;;7.40;2.42;;;;;;;2.59;64.09;101221.44;5011422;28;20121;-50
2021/04/10 00:41:32;;;;;;;7.40;1.77;;;;;;;2.59;64.11;101218.69;5032577;28;20069;-48
2021/04/10 00:44:01;;;;;;;8.55;1.80;;;;;;;2.61;64.21;101227.44;5016389;28;20133;-46
2021/04/10 00:46:27;;;;;;;8.07;1.30;;;;;;;2.58;64.32;101227.97;5018976;28;20041;-49
2021/04/10 00:48:54;;;;;;;6.22;1.95;;;;;;;2.53;64.15;101230.75;5023839;28;20064;-48
2021/04/10 00:51:20;;;;;;;5.60;2.00;;;;;;;2.48;64.52;101219.84;4994826;28;20093;-48
2021/04/10 00:53:47;;;;;;;4.05;2.08;;;;;;;2.46;64.65;101216.56;4992392;28;20066;-49
2021/04/10 00:56:13;;;;;;;6.20;1.55;;;;;;;2.49;64.67;101221.44;5008296;28;20037;-48
2021/04/10 00:58:39;;;;;;;4.90;1.80;;;;;;;2.48;64.57;101222.56;4986476;28;20681;-48
2021/04/10 01:01:06;;;;;;;5.25;2.08;;;;;;;2.51;64.42;101230.22;4993023;28;20691;-51
2021/04/10 01:03:32;;;;;;;8.15;2.10;;;;;;;2.51;64.77;101224.75;5003616;28;20064;-47
2021/04/10 01:05:59;;;;;;;4.20;2.38;;;;;;;2.46;64.52;101222.03;5001956;28;20132;-48
2021/04/10 01:08:27;;;;;;;5.80;2.17;;;;;;;2.43;65.17;101219.84;4999589;28;20045;-46
2021/04/10 01:11:01;;;;;;;5.53;1.63;;;;;;;2.44;64.80;101225.03;4997457;28;20104;-47
2021/04/10 01:13:27;;;;;;;3.53;1.92;;;;;;;2.38;64.92;101217.16;4994927;28;20137;-48
2021/04/10 01:16:18;;;;;;;4.50;1.50;;;;;;;2.33;65.26;101222.63;5002713;28;20073;-48
2021/04/10 01:18:53;;;;;;;8.02;2.45;;;;;;;2.33;65.02;101226.16;5003979;28;20404;-48
2021/04/10 01:21:38;;;;;;;6.47;1.88;;;;;;;2.32;64.98;101220.97;5007722;28;20053;-50
2021/04/10 01:24:31;;;;;;;4.78;1.85;;;;;;;2.29;65.01;101227.81;4993898;28;20580;-47
2021/04/10 01:27:06;;;;;;;3.17;1.48;;;;;;;2.23;65.40;101217.19;5009202;28;20482;-49
2021/04/10 01:29:54;;;;;;;6.60;1.80;;;;;;;2.21;65.23;101222.09;5009019;28;20077;-47
2021/04/10 01:32:21;;;;;;;7.03;1.88;;;;;;;2.22;65.21;101218.28;5013420;28;20104;-51
2021/04/10 01:34:54;;;;;;;3.75;1.30;;;;;;;2.21;65.13;101214.75;5006020;28;20046;-51
2021/04/10 01:37:26;;;;;;;3.58;1.63;;;;;;;2.16;65.30;101213.94;5006547;28;20133;-48
2021/04/10 01:39:53;;;;;;;5.80;2.25;;;;;;;2.16;65.30;101211.22;4997076;28;20050;-51
2021/04/10 01:42:22;;;;;;;4.88;1.90;;;;;;;2.10;65.65;101218.59;5005217;28;20454;-48
2021/04/10 01:44:51;;;;;;;7.80;2.20;;;;;;;2.06;65.59;101205.78;4999629;28;20088;-46
2021/04/10 01:47:18;;;;;;;4.80;1.95;;;;;;;2.09;65.52;101208.75;5007479;28;20101;-46
2021/04/10 01:49:46;;;;;;;5.75;1.60;;;;;;;2.06;65.48;101205.78;5020235;28;20046;-48
2021/04/10 01:52:14;;;;;;;4.60;1.98;;;;;;;2.06;65.46;101203.06;5015715;28;20073;-53
2021/04/10 01:54:40;;;;;;;5.40;2.75;;;;;;;2.02;65.36;101204.69;5025551;28;20136;-49
2021/04/10 01:57:08;;;;;;;6.93;2.53;;;;;;;1.98;65.78;101198.16;5028892;28;20095;-49
2021/04/10 01:59:35;;;;;;;4.43;1.70;;;;;;;1.97;65.82;101207.44;5014669;28;20108;-47
2021/04/10 02:02:03;;;;;;;4.40;2.30;;;;;;;1.94;65.71;101199.78;5012057;28;20045;-52
2021/04/10 02:04:32;;;;;;;7.82;3.53;;;;;;;1.95;65.67;101206.91;5017734;28;20064;-50
2021/04/10 02:07:00;;;;;;;5.60;2.15;;;;;;;1.92;65.86;101207.44;5018547;28;20131;-46
2021/04/10 02:09:27;;;;;;;4.13;2.13;;;;;;;1.91;65.91;101208.56;5019263;28;20077;-47
2021/04/10 02:11:55;;;;;;;7.53;2.35;;;;;;;1.88;66.12;101215.34;5016153;28;20045;-50
2021/04/10 02:14:22;;;;;;;5.82;3.10;;;;;;;1.85;66.09;101215.94;5029039;28;20778;-46
2021/04/10 02:16:49;;;;;;;7.10;2.47;;;;;;;1.84;66.14;101214.28;5025738;28;20474;-50
2021/04/10 02:19:16;;;;;;;4.22;1.88;;;;;;;1.82;66.23;101213.75;5019721;28;20053;-51
2021/04/10 02:21:43;;;;;;;4.18;1.80;;;;;;;1.80;66.23;101219.47;5013314;28;20132;-46
2021/04/10 02:24:11;;;;;;;5.05;2.10;;;;;;;1.78;66.30;101220.84;5012987;28;20034;-50
2021/04/10 02:26:38;;;;;;;6.80;2.38;;;;;;;1.77;66.36;101220.00;5026576;28;20077;-46
2021/04/10 02:29:04;;;;;;;5.60;2.17;;;;;;;1.78;66.34;101212.66;5021747;28;20081;-48
2021/04/10 02:31:32;;;;;;;9.40;2.50;;;;;;;1.77;66.22;101220.00;5020910;28;20049;-50
2021/04/10 02:34:06;;;;;;;6.88;2.60;;;;;;;1.75;66.57;101215.94;5012729;28;20046;-47
2021/04/10 02:36:35;;;;;;;7.68;2.55;;;;;;;1.71;66.56;101214.84;5012729;28;20052;-51
2021/04/10 02:39:02;;;;;;;8.93;3.05;;;;;;;1.65;66.90;101222.22;5015740;28;20436;-50
2021/04/10 02:41:28;;;;;;;5.57;3.50;;;;;;;1.65;66.83;101216.78;5016151;28;20132;-47
2021/04/10 02:44:05;;;;;;;23.95;8.20;;;;;;;1.67;66.85;101214.56;5026460;28;20069;-49
2021/04/10 02:46:35;;;;;;;5.57;3.13;;;;;;;1.66;66.87;101207.50;5024805;28;20124;-49
2021/04/10 02:49:09;;;;;;;7.60;2.47;;;;;;;1.63;67.07;101210.78;5019968;28;20049;-47
2021/04/10 02:51:47;;;;;;;6.90;2.55;;;;;;;1.62;67.39;101211.84;5011592;28;20542;-49
2021/04/10 02:54:17;;;;;;;13.70;2.65;;;;;;;1.58;67.19;101210.78;4999666;28;20452;-47
2021/04/10 02:57:16;;;;;;;8.10;2.65;;;;;;;1.59;67.29;101212.41;5010964;28;20088;-47
2021/04/10 02:59:49;;;;;;;5.57;2.50;;;;;;;1.59;67.02;101212.41;5007152;28;20072;-47
2021/04/10 03:02:19;;;;;;;6.68;2.53;;;;;;;1.61;66.74;101199.31;5027643;28;20132;-48
2021/04/10 03:04:47;;;;;;;4.35;2.25;;;;;;;1.62;66.98;101200.94;5005366;28;20277;-49
2021/04/10 03:07:15;;;;;;;8.48;2.60;;;;;;;1.58;67.13;101210.78;5026021;28;20111;-49
2021/04/10 03:09:43;;;;;;;6.05;3.00;;;;;;;1.58;67.16;101202.59;5026759;28;20073;-47
2021/04/10 03:12:12;;;;;;;3.15;1.95;;;;;;;1.53;67.09;101201.78;5027990;28;20085;-50
2021/04/10 03:14:41;;;;;;;8.18;2.90;;;;;;;1.49;67.32;101212.41;5021544;28;20368;-47
2021/04/10 03:17:12;;;;;;;3.38;2.33;;;;;;;1.44;67.44;101198.78;5027916;28;20061;-48
2021/04/10 03:19:41;;;;;;;10.55;2.17;;;;;;;1.42;67.64;101195.50;5007200;28;20043;-47
2021/04/10 03:22:09;;;;;;;6.63;2.10;;;;;;;1.44;67.70;101203.41;5005078;28;20144;-49
2021/04/10 03:24:36;;;;;;;6.63;2.45;;;;;;;1.42;67.99;101184.59;5010516;28;20149;-49
2021/04/10 03:27:02;;;;;;;7.40;2.67;;;;;;;1.41;67.99;101184.84;5006008;28;20050;-50
2021/04/10 03:29:29;;;;;;;8.35;2.90;;;;;;;1.39;67.99;101190.59;5029754;28;20045;-48
2021/04/10 03:31:57;;;;;;;7.68;2.90;;;;;;;1.42;67.83;101194.69;5029730;28;20430;-47
2021/04/10 03:34:24;;;;;;;10.85;2.70;;;;;;;1.36;68.00;101182.97;5016074;28;20088;-47
2021/04/10 03:36:52;;;;;;;8.40;2.55;;;;;;;1.36;68.08;101188.41;5013220;28;20073;-48
2021/04/10 03:39:19;;;;;;;7.72;3.08;;;;;;;1.35;68.22;101189.50;4994545;28;20046;-49
2021/04/10 03:41:45;;;;;;;7.38;3.75;;;;;;;1.35;67.96;101189.50;5020936;28;20049;-47
2021/04/10 03:44:12;;;;;;;6.20;3.58;;;;;;;1.30;67.96;101192.22;5012390;28;20132;-47
2021/04/10 03:46:38;;;;;;;8.45;3.65;;;;;;;1.31;68.04;101185.69;5022768;28;20065;-51
2021/04/10 03:49:06;;;;;;;9.35;3.42;;;;;;;1.30;68.08;101189.50;5011164;28;20065;-51
2021/04/10 03:51:36;;;;;;;10.65;3.30;;;;;;;1.28;68.13;101188.97;5011190;28;20049;-49
2021/04/10 03:54:02;;;;;;;8.23;3.42;;;;;;;1.29;67.83;101187.06;5004721;28;20090;-49
2021/04/10 03:56:30;;;;;;;7.10;3.22;;;;;;;1.24;68.17;101187.88;5014477;28;20049;-49
2021/04/10 03:58:56;;;;;;;6.65;2.65;;;;;;;1.20;68.48;101192.22;5012594;28;20130;-48
2021/04/10 04:01:22;;;;;;;6.93;2.65;;;;;;;1.20;68.28;101186.78;5010098;28;20054;-47
2021/04/10 04:03:49;;;;;;;6.47;2.45;;;;;;;1.17;68.48;101190.03;5009700;28;20550;-48
2021/04/10 04:06:15;;;;;;;13.75;2.42;;;;;;;1.17;68.56;101193.59;5012149;28;20141;-50
2021/04/10 04:08:41;;;;;;;7.25;2.88;;;;;;;1.18;68.55;101195.25;5015747;28;20053;-47
2021/04/10 04:11:07;;;;;;;9.20;2.45;;;;;;;1.19;68.49;101206.97;5017131;28;20085;-50
2021/04/10 04:13:34;;;;;;;12.15;2.63;;;;;;;1.18;68.35;101199.88;5010611;28;20077;-48
2021/04/10 04:16:00;;;;;;;6.80;3.03;;;;;;;1.18;68.40;101202.59;5018392;28;20195;-48
2021/04/10 04:18:26;;;;;;;7.13;2.28;;;;;;;1.12;68.52;101206.41;5027214;28;20076;-49
2021/04/10 04:20:52;;;;;;;8.15;2.72;;;;;;;1.07;68.77;101204.50;5018621;28;20133;-48
2021/04/10 04:23:19;;;;;;;4.00;2.08;;;;;;;1.06;68.92;101207.50;5006472;28;20081;-46
2021/04/10 04:25:45;;;;;;;7.53;2.22;;;;;;;1.02;69.02;101196.31;5010868;28;20134;-47
2021/04/10 04:28:11;;;;;;;4.53;1.70;;;;;;;1.04;68.88;101205.03;5012123;28;20411;-50
2021/04/10 04:30:38;;;;;;;7.60;2.42;;;;;;;1.02;68.74;101206.41;5032660;28;20132;-47
2021/04/10 04:33:04;;;;;;;7.30;2.00;;;;;;;1.04;68.80;101206.94;5031925;28;20128;-49
2021/04/10 04:35:30;;;;;;;4.50;2.60;;;;;;;1.00;68.83;101209.41;5018886;28;20050;-47
2021/04/10 04:37:57;;;;;;;3.80;1.98;;;;;;;1.00;68.74;101209.41;5015448;28;20124;-49
2021/04/10 04:40:24;;;;;;;10.00;4.65;;;;;;;1.00;68.83;101206.69;5027506;28;20076;-49
2021/04/10 04:42:50;;;;;;;10.13;2.45;;;;;;;0.98;68.79;101210.75;5032608;28;20566;-50
2021/04/10 04:45:17;;;;;;;5.50;2.22;;;;;;;0.98;69.02;101203.38;5024168;28;20085;-47
2021/04/10 04:47:43;;;;;;;6.95;2.53;;;;;;;0.97;68.90;101204.50;5016978;28;20547;-47
2021/04/10 04:50:10;;;;;;;5.65;1.88;;;;;;;0.92;69.12;101206.38;5033099;28;20113;-47
2021/04/10 04:52:36;;;;;;;7.53;3.42;;;;;;;0.93;69.19;101214.28;5021277;28;20455;-50
2021/04/10 04:55:03;;;;;;;13.30;3.28;;;;;;;0.94;69.22;101210.47;5014483;28;20081;-50
2021/04/10 04:57:30;;;;;;;12.07;3.88;;;;;;;0.93;69.09;101214.28;5023016;28;20581;-52
2021/04/10 04:59:56;;;;;;;7.05;2.17;;;;;;;0.87;69.27;101209.09;5020064;28;20045;-49
2021/04/10 05:02:26;;;;;;;9.50;2.67;;;;;;;0.90;69.46;101219.47;5024534;28;20052;-48
2021/04/10 05:04:52;;;;;;;10.10;2.40;;;;;;;0.89;69.41;101215.09;5017901;28;20419;-49
2021/04/10 05:07:20;;;;;;;7.25;2.50;;;;;;;0.88;69.38;101214.28;5012901;28;20447;-48
2021/04/10 05:09:47;;;;;;;3.58;1.55;;;;;;;0.88;69.26;101222.44;5019693;28;20045;-47
2021/04/10 05:12:13;;;;;;;5.28;2.03;;;;;;;0.84;69.45;101217.81;5014544;28;20483;-47
2021/04/10 05:14:39;;;;;;;6.80;2.13;;;;;;;0.83;69.31;101221.63;5027186;28;20121;-47
2021/04/10 05:17:06;;;;;;;10.15;2.03;;;;;;;0.83;69.39;101218.91;5034066;28;20077;-50
2021/04/10 05:19:32;;;;;;;12.02;1.92;;;;;;;0.80;69.35;101227.59;5013128;28;20049;-48
2021/04/10 05:21:58;;;;;;;11.75;2.50;;;;;;;0.78;69.40;101232.50;5004155;28;20042;-47
2021/04/10 05:24:25;;;;;;;5.88;2.13;;;;;;;0.74;69.43;101236.88;5016886;28;20049;-47
2021/04/10 05:26:51;;;;;;;5.40;1.95;;;;;;;0.71;69.41;101227.34;5026367;28;20061;-47
2021/04/10 05:29:17;;;;;;;5.75;2.58;;;;;;;0.72;69.23;101230.84;5024672;28;20513;-50
2021/04/10 05:31:43;;;;;;;5.70;3.25;;;;;;;0.73;69.49;101229.78;5033537;28;20053;-49
2021/04/10 05:34:10;;;;;;;7.65;3.38;;;;;;;0.73;69.58;101224.31;5019605;28;20058;-48
2021/04/10 05:36:36;;;;;;;9.90;3.10;;;;;;;0.73;69.98;101225.16;4987345;28;20047;-46
2021/04/10 05:39:03;;;;;;;9.38;3.25;;;;;;;0.72;69.78;101222.69;5010591;28;20561;-49
2021/04/10 05:41:29;;;;;;;6.13;2.80;;;;;;;0.70;69.82;101227.59;5027822;28;20080;-47
2021/04/10 05:43:55;;;;;;;10.38;2.40;;;;;;;0.68;70.01;101221.59;5026791;28;20065;-47
2021/04/10 05:46:23;;;;;;;8.40;2.35;;;;;;;0.68;69.81;101216.13;5032297;28;20137;-48
2021/04/10 05:48:49;;;;;;;6.20;1.90;;;;;;;0.69;69.95;101229.47;5018076;28;20058;-48
2021/04/10 05:51:16;;;;;;;6.43;2.60;;;;;;;0.70;69.85;101227.59;5002925;28;20441;-50
2021/04/10 05:53:44;;;;;;;8.57;3.00;;;;;;;0.68;70.02;101216.13;5013510;28;20050;-49
2021/04/10 05:56:11;;;;;;;9.77;2.88;;;;;;;0.70;70.00;101222.13;4995270;28;20056;-51
2021/04/10 05:58:38;;;;;;;5.05;2.80;;;;;;;0.73;69.95;101224.31;5024822;28;20088;-48
2021/04/10 06:01:04;;;;;;;9.77;2.80;;;;;;;0.71;70.08;101216.44;5031317;28;20140;-46
2021/04/10 06:03:30;;;;;;;9.20;2.85;;;;;;;0.75;70.02;101216.69;5009240;28;20096;-49
2021/04/10 06:05:57;;;;;;;5.15;2.75;;;;;;;0.79;69.89;101228.72;5007876;28;20037;-48
2021/04/10 06:08:24;;;;;;;10.95;4.47;;;;;;;0.78;70.14;101232.50;5016705;28;20088;-47
2021/04/10 06:10:51;;;;;;;10.65;3.80;;;;;;;0.81;69.93;101237.44;5012603;28;20046;-49
2021/04/10 06:13:19;;;;;;;9.20;3.40;;;;;;;0.79;70.06;101234.16;5030001;28;20085;-46
2021/04/10 06:15:49;;;;;;;7.10;3.05;;;;;;;0.81;70.00;101238.25;5024537;28;20042;-51
2021/04/10 06:18:15;;;;;;;8.77;2.97;;;;;;;0.84;70.33;101236.91;5023972;28;20041;-48
2021/04/10 06:20:41;;;;;;;6.60;2.95;;;;;;;0.86;69.91;101240.16;5023884;28;20132;-47
2021/04/10 06:23:08;;;;;;;6.22;2.22;;;;;;;0.86;70.08;101240.16;5015795;28;20050;-49
2021/04/10 06:25:34;;;;;;;5.47;2.80;;;;;;;0.86;70.12;101241.00;5015978;28;20041;-49
2021/04/10 06:28:02;;;;;;;5.82;2.25;;;;;;;0.91;70.00;101242.91;5031248;28;20041;-49
2021/04/10 06:30:28;;;;;;;4.55;1.67;;;;;;;0.96;69.92;101234.72;5020423;28;20029;-46
2021/04/10 06:32:56;;;;;;;8.52;1.92;;;;;;;0.99;69.80;101245.94;5016681;28;20050;-48
2021/04/10 06:35:23;;;;;;;4.18;1.80;;;;;;;1.00;69.95;101244.03;5016385;28;20041;-53
2021/04/10 06:37:50;;;;;;;5.53;1.98;;;;;;;1.01;69.96;101242.91;5030270;28;20136;-47
2021/04/10 06:40:19;;;;;;;5.25;2.42;;;;;;;1.02;70.12;101234.47;5021415;28;20104;-47
2021/04/10 06:42:45;;;;;;;5.05;2.28;;;;;;;1.05;69.96;101244.03;5012067;28;20152;-49
2021/04/10 06:45:11;;;;;;;5.15;1.90;;;;;;;1.06;70.17;101241.03;5014717;28;20148;-48
2021/04/10 06:47:39;;;;;;;5.03;1.77;;;;;;;1.10;70.18;101244.03;5011921;28;20120;-50
2021/04/10 06:50:07;;;;;;;6.05;1.92;;;;;;;1.11;70.22;101249.22;5021920;28;20057;-49
2021/04/10 06:52:40;;;;;;;3.60;1.90;;;;;;;1.14;70.42;101254.13;5019426;28;20125;-47
2021/04/10 06:55:13;;;;;;;;;;;;;;;1.17;70.61;101241.84;5012490;28;20455;-47
2021/04/10 06:57:54;;;;;;;6.70;1.98;;;;;;;1.18;70.44;101248.97;4994651;28;20048;-48
2021/04/10 07:00:21;;;;;;;3.45;1.85;;;;;;;1.17;70.07;101248.13;5007360;28;20068;-48
2021/04/10 07:02:48;;;;;;;6.43;2.42;;;;;;;1.20;70.12;101250.31;5011826;28;20069;-48
2021/04/10 07:05:15;;;;;;;6.70;2.88;;;;;;;1.22;70.20;101245.41;5009377;28;20569;-49
2021/04/10 07:07:43;;;;;;;4.22;1.48;;;;;;;1.23;70.25;101246.22;5016459;28;20046;-47
2021/04/10 07:10:13;;;;;;;4.30;2.35;;;;;;;1.29;70.44;101256.06;5026141;28;20486;-49
2021/04/10 07:12:40;;;;;;;10.10;2.50;;;;;;;1.34;70.32;101247.06;5027543;28;20046;-48
2021/04/10 07:15:08;;;;;;;11.60;2.13;;;;;;;1.36;70.69;101253.88;5029109;28;20612;-50
2021/04/10 07:17:35;;;;;;;9.43;2.38;;;;;;;1.40;70.26;101248.72;5025660;28;20053;-47
2021/04/10 07:20:23;;;;;;;3.45;1.40;;;;;;;1.43;70.89;101254.41;5022335;28;20052;-51
2021/04/10 07:23:16;;;;;;;4.93;1.77;;;;;;;1.49;70.66;101264.25;5006669;28;20129;-46
2021/04/10 07:25:44;;;;;;;6.53;1.75;;;;;;;1.53;70.74;101262.63;5009206;28;20494;-48
2021/04/10 07:28:31;;;;;;;6.80;1.88;;;;;;;1.54;70.65;101263.44;5024014;28;20076;-52
2021/04/10 07:31:12;;;;;;;3.80;1.88;;;;;;;1.60;70.60;101268.63;5010296;28;20088;-46
2021/04/10 07:33:56;;;;;;;4.00;2.00;;;;;;;1.63;70.53;101257.16;5012797;28;20123;-52
2021/04/10 07:36:23;;;;;;;7.82;2.13;;;;;;;1.69;70.39;101267.00;5009780;28;20042;-52
2021/04/10 07:38:57;;;;;;;6.25;2.20;;;;;;;1.73;70.63;101272.72;5013365;28;20068;-51
2021/04/10 07:41:24;;;;;;;4.95;2.00;;;;;;;1.79;70.75;101261.53;5029267;28;20073;-47
2021/04/10 07:43:50;;;;;;;6.90;1.52;;;;;;;1.82;70.74;101269.19;5025495;28;20081;-51
2021/04/10 07:46:20;;;;;;;6.35;2.10;;;;;;;1.90;70.75;101267.78;5009727;28;20034;-47
2021/04/10 07:49:12;;;;;;;7.68;1.85;;;;;;;1.98;70.85;101263.69;5023395;28;20076;-48
2021/04/10 07:51:52;;;;;;;3.55;1.50;;;;;;;2.06;70.73;101266.69;5007275;28;20054;-50
2021/04/10 07:54:28;;;;;;;11.48;2.33;;;;;;;2.11;71.16;101263.94;5000886;28;20042;-53
2021/04/10 07:57:08;;;;;;;6.18;3.05;;;;;;;2.17;70.87;101262.00;5018340;28;20052;-47
2021/04/10 07:59:56;;;;;;;9.60;1.88;;;;;;;2.27;70.72;101261.97;5000062;28;20089;-47
2021/04/10 08:02:23;;;;;;;5.05;1.60;;;;;;;2.37;70.45;101256.47;5013242;28;20077;-47
2021/04/10 08:04:56;;;;;;;5.35;1.35;;;;;;;2.43;70.74;101258.13;5011546;28;20053;-50
2021/04/10 08:07:24;;;;;;;11.70;1.48;;;;;;;2.51;70.88;101257.53;5014459;28;20042;-48
2021/04/10 08:10:01;;;;;;;5.10;1.30;;;;;;;2.61;70.95;101259.41;5021076;28;20469;-50
2021/04/10 08:12:36;;;;;;;6.03;2.47;;;;;;;2.71;70.88;101251.97;4999631;28;20070;-48
2021/04/10 08:15:06;;;;;;;1.95;1.48;;;;;;;2.78;71.12;101262.63;5013416;28;20446;-47
2021/04/10 08:17:36;;;;;;;4.93;1.55;;;;;;;2.86;71.29;101260.09;5012968;28;20050;-52
2021/04/10 08:20:18;;;;;;;6.25;1.55;;;;;;;2.96;71.84;101260.06;5011960;28;20046;-49
2021/04/10 08:22:44;;;;;;;5.72;1.48;;;;;;;3.10;72.08;101259.44;5017527;28;20581;-48
2021/04/10 08:25:12;;;;;;;3.03;1.35;;;;;;;3.22;72.29;101257.16;5016223;28;20041;-49
2021/04/10 08:27:39;;;;;;;3.63;1.77;;;;;;;3.36;73.31;101258.16;5012610;28;20050;-50
2021/04/10 08:30:08;;;;;;;3.38;0.93;;;;;;;3.52;73.33;101262.41;5009532;28;20178;-48
2021/04/10 08:32:34;;;;;;;5.50;1.35;;;;;;;3.67;73.81;101268.59;5009866;28;20046;-49
2021/04/10 08:35:02;;;;;;;7.22;1.85;;;;;;;3.86;74.93;101262.41;5011734;28;20046;-49
2021/04/10 08:37:30;;;;;;;13.13;7.90;;;;;;;4.07;75.92;101259.19;5012104;28;20139;-50
2021/04/10 08:39:58;;;;;;;31.42;14.18;;;;;;;4.34;76.76;101257.81;5012083;28;20038;-53
2021/04/10 08:42:26;;;;;;;8.32;1.88;;;;;;;4.67;77.09;101254.09;5010873;28;20096;-48
2021/04/10 08:44:53;;;;;;;4.50;1.52;;;;;;;5.08;77.70;101257.13;5011153;28;20460;-48
2021/04/10 08:47:20;;;;;;;2.88;1.15;;;;;;;5.59;77.59;101260.72;5011990;28;20084;-48
2021/04/10 08:49:49;;;;;;;7.15;2.38;;;;;;;6.23;77.72;101259.91;5009977;28;20058;-48
2021/04/10 08:52:21;;;;;;;4.78;1.08;;;;;;;7.03;76.24;101249.19;5011283;28;20049;-49
2021/04/10 08:54:50;;;;;;;2.65;1.00;;;;;;;8.03;74.56;101238.72;5016805;28;20073;-49
2021/04/10 08:57:17;;;;;;;6.07;1.70;;;;;;;9.00;71.52;101253.09;5012647;28;20399;-47
2021/04/10 08:59:46;;;;;;;3.80;0.80;;;;;;;9.59;67.32;101253.44;5013994;28;20095;-48
2021/04/10 09:02:18;;;;;;;1.73;0.88;;;;;;;10.08;65.62;101254.84;5012039;28;20691;-50
2021/04/10 09:04:52;;;;;;;;;;;;;;;10.34;59.85;101256.44;5013807;28;20716;-48
2021/04/10 09:07:19;;;;;;;1.27;0.80;;;;;;;10.66;63.74;101249.44;5011173;28;19921;-48
2021/04/10 09:09:48;;;;;;;2.47;0.90;;;;;;;11.07;59.91;101247.91;5010700;28;20152;-53
2021/04/10 09:12:18;;;;;;;2.67;0.85;;;;;;;11.40;59.12;101251.56;5011137;28;20073;-48
2021/04/10 09:14:46;;;;;;;5.63;0.93;;;;;;;11.72;57.48;101258.34;5011365;28;20128;-49
2021/04/10 09:17:13;;;;;;;3.55;1.40;;;;;;;11.95;56.45;101246.53;5023157;28;20057;-48
2021/04/10 09:19:39;;;;;;;1.83;0.82;;;;;;;12.16;54.87;101249.22;5024575;28;20125;-49
2021/04/10 09:22:07;;;;;;;1.65;0.70;;;;;;;12.49;54.01;101250.00;5004772;28;20056;-50
2021/04/10 09:24:46;;;;;;;3.38;0.85;;;;;;;12.76;50.05;101249.28;5022255;28;20049;-49
2021/04/10 09:27:24;;;;;;;6.43;1.35;;;;;;;12.45;50.93;101246.28;5012299;28;20049;-46
2021/04/10 09:30:03;;;;;;;3.58;1.10;;;;;;;12.52;50.10;101251.25;5010199;28;20103;-46
2021/04/10 09:32:35;;;;;;;6.25;1.25;;;;;;;12.66;50.45;101248.94;5013686;28;20136;-47
2021/04/10 09:35:13;;;;;;;4.47;1.55;;;;;;;12.92;46.56;101251.38;5022606;28;20060;-50
2021/04/10 09:37:39;;;;;;;5.05;0.77;;;;;;;13.16;49.88;101262.47;5026319;28;20516;-49
2021/04/10 09:40:09;;;;;;;3.60;1.70;;;;;;;13.25;48.69;101260.41;5021644;28;20087;-50
2021/04/10 09:42:39;;;;;;;5.78;1.33;;;;;;;13.04;47.97;101257.75;5014928;28;20049;-50
2021/04/10 09:45:20;;;;;;;3.33;0.90;;;;;;;13.08;45.26;101247.56;5019121;28;20352;-53
2021/04/10 09:48:01;;;;;;;1.80;0.77;;;;;;;12.97;43.56;101240.03;5012250;28;20038;-48
2021/04/10 09:50:33;;;;;;;4.30;0.80;;;;;;;12.35;46.60;101238.41;4972501;28;20300;-47
2021/04/10 09:53:01;;;;;;;3.85;1.08;;;;;;;11.56;47.04;101244.25;4986113;28;20046;-46
2021/04/10 09:55:29;;;;;;;3.80;0.73;;;;;;;11.74;46.92;101239.38;4991597;28;20057;-47
2021/04/10 09:58:09;;;;;;;1.90;0.73;;;;;;;12.18;46.42;101230.25;4994749;28;20498;-48
2021/04/10 10:00:42;;;;;;;3.75;0.93;;;;;;;12.36;46.12;101230.88;4991106;28;20145;-49
2021/04/10 10:03:10;;;;;;;5.70;0.80;;;;;;;11.94;46.24;101230.22;4997677;28;20042;-55
2021/04/10 10:05:42;;;;;;;3.35;1.00;;;;;;;12.00;46.25;101232.41;4991287;28;20567;-53
2021/04/10 10:08:19;;;;;;;4.25;1.00;;;;;;;12.51;45.57;101235.75;4998717;28;20092;-52
2021/04/10 10:10:52;;;;;;;19.13;2.50;;;;;;;12.96;45.21;101236.44;5001513;28;20645;-49
2021/04/10 10:13:41;;;;;;;;;;;;;;;13.23;43.73;101234.91;4981337;28;20381;-52
2021/04/10 10:16:08;;;;;;;2.33;0.55;;;;;;;13.55;45.07;101231.13;4999198;28;20044;-47
2021/04/10 10:18:42;;;;;;;3.65;0.80;;;;;;;13.74;43.88;101236.81;5000602;28;20112;-46
2021/04/10 10:21:09;;;;;;;6.32;0.95;;;;;;;13.81;44.02;101231.47;5002822;28;20046;-45
2021/04/10 10:23:42;;;;;;;4.90;0.60;;;;;;;14.16;43.43;101231.63;4990653;28;20042;-48
2021/04/10 10:26:39;;;;;;;3.13;0.80;;;;;;;14.49;42.93;101220.97;5001994;28;20124;-51
2021/04/10 10:29:11;;;;;;;4.88;0.60;;;;;;;14.28;41.79;101231.53;4976433;28;20146;-47
2021/04/10 10:31:46;;;;;;;2.20;0.60;;;;;;;13.40;42.48;101223.50;5003424;28;20052;-48
2021/04/10 10:34:21;;;;;;;3.65;0.70;;;;;;;13.01;42.52;101222.28;4992309;28;20046;-47
2021/04/10 10:36:49;;;;;;;3.42;1.08;;;;;;;12.41;42.62;101211.22;4992466;28;20472;-46
2021/04/10 10:39:30;;;;;;;5.35;1.13;;;;;;;11.58;42.84;101223.34;4991497;28;20101;-48
2021/04/10 10:41:58;;;;;;;2.13;0.65;;;;;;;10.87;43.84;101217.06;5005211;28;20046;-51
2021/04/10 10:44:25;;;;;;;3.10;0.50;;;;;;;10.21;44.43;101215.94;4974693;28;20110;-49
2021/04/10 10:47:08;;;;;;;2.55;0.63;;;;;;;9.74;45.15;101222.56;4997946;28;20042;-49
2021/04/10 10:49:35;;;;;;;6.63;1.38;;;;;;;10.18;45.21;101215.78;5005035;28;20783;-47
2021/04/10 10:52:02;;;;;;;1.58;0.60;;;;;;;10.75;45.16;101213.41;5025934;28;20056;-50
2021/04/10 10:54:35;;;;;;;3.97;0.50;;;;;;;10.81;44.92;101217.59;5017471;28;20057;-47
2021/04/10 10:57:18;;;;;;;3.17;0.88;;;;;;;10.44;44.86;101213.72;5026598;28;20124;-47
2021/04/10 11:00:10;;;;;;;0.65;0.40;;;;;;;9.72;44.84;101219.28;5011043;28;20104;-47
2021/04/10 11:02:36;;;;;;;2.85;0.50;;;;;;;9.28;45.71;101220.47;5019290;28;20073;-45
2021/04/10 11:05:04;;;;;;;1.52;0.80;;;;;;;9.17;46.11;101225.50;5018305;28;20049;-49
2021/04/10 11:07:30;;;;;;;3.17;0.75;;;;;;;9.61;45.89;101212.50;5009453;28;20133;-48
2021/04/10 11:09:58;;;;;;;4.82;0.80;;;;;;;9.74;45.93;101217.03;5007882;28;20094;-46
2021/04/10 11:12:26;;;;;;;2.83;0.70;;;;;;;9.68;45.92;101218.31;5000105;28;20081;-47
2021/04/10 11:14:58;;;;;;;1.40;0.85;;;;;;;9.53;46.19;101216.06;5010838;28;20100;-49
2021/04/10 11:17:31;;;;;;;4.82;1.00;;;;;;;9.31;46.48;101230.06;5027679;28;20648;-47
2021/04/10 11:20:02;;;;;;;6.03;1.42;;;;;;;9.04;46.55;101226.47;5011132;28;20487;-47
2021/04/10 11:22:28;;;;;;;2.33;1.30;;;;;;;8.92;46.45;101231.00;5018849;28;20169;-47
2021/04/10 11:25:00;;;;;;;3.15;1.05;;;;;;;8.98;46.39;101227.75;5024170;28;20071;-47
2021/04/10 11:27:34;;;;;;;0.80;0.60;;;;;;;9.13;45.73;101218.97;5014792;28;20518;-48
2021/04/10 11:30:03;;;;;;;2.40;1.15;;;;;;;9.14;46.44;101226.13;5014718;28;20135;-51
2021/04/10 11:32:36;;;;;;;2.42;0.90;;;;;;;9.16;46.28;101217.50;5015874;28;20140;-47
2021/04/10 11:35:08;;;;;;;2.95;0.80;;;;;;;9.12;46.39;101216.56;5011564;28;20669;-49
2021/04/10 11:37:34;;;;;;;1.17;0.77;;;;;;;9.07;46.48;101212.00;5008899;28;20519;-48
2021/04/10 11:40:06;;;;;;;2.53;0.80;;;;;;;9.25;45.78;101221.09;5005420;28;20447;-50
2021/04/10 11:42:39;;;;;;;2.63;1.00;;;;;;;9.34;46.25;101213.66;5026734;28;20453;-52